Aviation Digital Data Service (ADDS)

Output produced by METARs form (1850 UTC 30 July 2016)
found at http://aviationweather.gov/adds/metars/
 
KAVL 301723Z 3018/3118 32005KT P6SM -SHRA VCTS BKN060CB 
     TEMPO 3018/3022 VRB10G20KT -TSRA BKN040CB 
     FM310200 VRB02KT P6SM SCT070 
     FM310900 VRB02KT 4SM BR BKN070 
     FM311300 30003KT P6SM SCT080 
     PROB30 3116/3118 4SM -TSRA BKN050CB